TVS4BK LTFJ-LTFO
Flight info
| Callsign | TVS4BK |
|---|---|
| Flight time | 1h 28m |
| Altitude | 39000 |
| Route | VICEN UT380 ASMAP UL333 LATGA UT363 ESB UT364 ILHAN UW71 TBN UN37 ZUBRE |
| Aircraft | B38M/M-SDE1FGHILORVWXY/HB1 |
Departure
| Time | 2026-05-04 20:43 |
|---|---|
| Airport | Istanbul Sabiha Gökçen International Airport (LTFJ) |
Arrival
| Time | 2026-05-04 22:11 |
|---|---|
| Airport | Rize–Artvin Airport (LTFO) |
| Time | Latitude | Longitude | Altitude | Speed | Heading |
|---|---|---|---|---|---|
| 2026-05-04 19:54 | 40.90488 | 29.31773 | 323 ft | 0 kts | 153° |
| 2026-05-04 20:27 | 40.90502 | 29.31763 | 323 ft | 3 kts | 152° |
| 2026-05-04 20:27 | 40.90520 | 29.31750 | 322 ft | 3 kts | 152° |
| 2026-05-04 20:28 | 40.90539 | 29.31738 | 320 ft | 3 kts | 169° |
| 2026-05-04 20:28 | 40.90559 | 29.31741 | 320 ft | 3 kts | 211° |
| 2026-05-04 20:28 | 40.90573 | 29.31761 | 321 ft | 3 kts | 242° |
| 2026-05-04 20:28 | 40.90577 | 29.31772 | 319 ft | 0 kts | 239° |
| 2026-05-04 20:31 | 40.90576 | 29.31768 | 321 ft | 2 kts | 238° |
| 2026-05-04 20:31 | 40.90564 | 29.31745 | 320 ft | 5 kts | 237° |
| 2026-05-04 20:31 | 40.90546 | 29.31698 | 321 ft | 7 kts | 242° |
| 2026-05-04 20:31 | 40.90517 | 29.31626 | 322 ft | 10 kts | 243° |
| 2026-05-04 20:32 | 40.90480 | 29.31530 | 322 ft | 13 kts | 245° |
| 2026-05-04 20:32 | 40.90451 | 29.31453 | 320 ft | 8 kts | 233° |
| 2026-05-04 20:32 | 40.90394 | 29.31451 | 323 ft | 10 kts | 154° |
| 2026-05-04 20:32 | 40.90320 | 29.31496 | 323 ft | 12 kts | 168° |
| 2026-05-04 20:33 | 40.90254 | 29.31438 | 323 ft | 13 kts | 239° |
| 2026-05-04 20:33 | 40.90208 | 29.31318 | 321 ft | 16 kts | 244° |
| 2026-05-04 20:33 | 40.90155 | 29.31172 | 321 ft | 19 kts | 244° |
| 2026-05-04 20:33 | 40.90093 | 29.31002 | 322 ft | 22 kts | 244° |
| 2026-05-04 20:34 | 40.90025 | 29.30811 | 323 ft | 25 kts | 245° |
| 2026-05-04 20:34 | 40.89948 | 29.30596 | 321 ft | 27 kts | 243° |
| 2026-05-04 20:34 | 40.89861 | 29.30363 | 322 ft | 30 kts | 244° |
| 2026-05-04 20:34 | 40.89767 | 29.30111 | 321 ft | 28 kts | 244° |
| 2026-05-04 20:35 | 40.89685 | 29.29889 | 322 ft | 28 kts | 244° |
| 2026-05-04 20:35 | 40.89598 | 29.29654 | 323 ft | 29 kts | 244° |
| 2026-05-04 20:35 | 40.89528 | 29.29459 | 323 ft | 20 kts | 244° |
| 2026-05-04 20:35 | 40.89486 | 29.29345 | 322 ft | 10 kts | 244° |
| 2026-05-04 20:36 | 40.89438 | 29.29263 | 323 ft | 13 kts | 208° |
| 2026-05-04 20:36 | 40.89366 | 29.29271 | 322 ft | 12 kts | 154° |
| 2026-05-04 20:36 | 40.89356 | 29.29277 | 321 ft | 0 kts | 155° |
| 2026-05-04 20:41 | 40.89350 | 29.29281 | 320 ft | 2 kts | 154° |
| 2026-05-04 20:41 | 40.89325 | 29.29297 | 322 ft | 5 kts | 154° |
| 2026-05-04 20:41 | 40.89296 | 29.29327 | 324 ft | 5 kts | 125° |
| 2026-05-04 20:41 | 40.89292 | 29.29380 | 321 ft | 8 kts | 77° |
| 2026-05-04 20:42 | 40.89303 | 29.29417 | 323 ft | 0 kts | 66° |
| 2026-05-04 20:42 | 40.89380 | 29.29634 | 324 ft | 72 kts | 64° |
| 2026-05-04 20:42 | 40.89742 | 29.30603 | 324 ft | 159 kts | 63° |
| 2026-05-04 20:43 | 40.90283 | 29.32124 | 750 ft | 199 kts | 65° |
| 2026-05-04 20:43 | 40.90846 | 29.33848 | 1905 ft | 198 kts | 63° |
| 2026-05-04 20:43 | 40.91317 | 29.35467 | 3475 ft | 179 kts | 64° |
| 2026-05-04 20:43 | 40.91711 | 29.37000 | 4634 ft | 181 kts | 59° |
| 2026-05-04 20:44 | 40.92361 | 29.38521 | 5335 ft | 200 kts | 53° |
| 2026-05-04 20:44 | 40.92897 | 29.40343 | 6018 ft | 232 kts | 76° |
| 2026-05-04 20:44 | 40.92652 | 29.42564 | 6506 ft | 256 kts | 108° |
| 2026-05-04 20:44 | 40.91455 | 29.44349 | 6633 ft | 271 kts | 146° |
| 2026-05-04 20:45 | 40.89708 | 29.45350 | 6802 ft | 275 kts | 152° |
| 2026-05-04 20:45 | 40.88236 | 29.46864 | 7385 ft | 263 kts | 121° |
| 2026-05-04 20:45 | 40.87428 | 29.48997 | 8407 ft | 259 kts | 99° |
| 2026-05-04 20:45 | 40.86992 | 29.51346 | 9190 ft | 275 kts | 98° |
| 2026-05-04 20:46 | 40.86507 | 29.53868 | 10008 ft | 290 kts | 98° |
| 2026-05-04 20:46 | 40.85992 | 29.56494 | 10787 ft | 304 kts | 99° |
| 2026-05-04 20:46 | 40.85443 | 29.59279 | 11420 ft | 321 kts | 99° |
| 2026-05-04 20:46 | 40.84867 | 29.62197 | 12163 ft | 333 kts | 100° |
| 2026-05-04 20:47 | 40.84282 | 29.65171 | 13152 ft | 336 kts | 100° |
| 2026-05-04 20:47 | 40.83695 | 29.68182 | 14052 ft | 340 kts | 100° |
| 2026-05-04 20:47 | 40.83101 | 29.71227 | 14876 ft | 344 kts | 99° |
| 2026-05-04 20:47 | 40.82499 | 29.74312 | 15692 ft | 348 kts | 99° |
| 2026-05-04 20:48 | 40.81897 | 29.77390 | 16468 ft | 353 kts | 99° |
| 2026-05-04 20:48 | 40.81279 | 29.80545 | 17264 ft | 357 kts | 99° |
| 2026-05-04 20:48 | 40.80645 | 29.83777 | 18051 ft | 361 kts | 99° |
| 2026-05-04 20:48 | 40.80019 | 29.86967 | 18734 ft | 365 kts | 99° |
| 2026-05-04 20:49 | 40.79377 | 29.90227 | 19398 ft | 368 kts | 98° |
| 2026-05-04 20:49 | 40.78731 | 29.93503 | 20089 ft | 370 kts | 98° |
| 2026-05-04 20:49 | 40.78079 | 29.96806 | 20769 ft | 372 kts | 98° |
| 2026-05-04 20:49 | 40.77423 | 30.00128 | 21430 ft | 375 kts | 98° |
| 2026-05-04 20:50 | 40.76762 | 30.03468 | 22098 ft | 377 kts | 97° |
| 2026-05-04 20:50 | 40.76095 | 30.06832 | 22718 ft | 381 kts | 97° |
| 2026-05-04 20:50 | 40.75421 | 30.10226 | 23361 ft | 383 kts | 97° |
| 2026-05-04 20:50 | 40.74741 | 30.13642 | 23904 ft | 387 kts | 97° |
| 2026-05-04 20:51 | 40.74061 | 30.17056 | 24377 ft | 390 kts | 97° |
| 2026-05-04 20:51 | 40.73369 | 30.20524 | 24877 ft | 393 kts | 97° |
| 2026-05-04 20:51 | 40.72670 | 30.24023 | 25361 ft | 396 kts | 97° |
| 2026-05-04 20:51 | 40.71963 | 30.27553 | 25830 ft | 399 kts | 97° |
| 2026-05-04 20:52 | 40.71250 | 30.31109 | 26309 ft | 402 kts | 97° |
| 2026-05-04 20:52 | 40.70531 | 30.34689 | 26789 ft | 405 kts | 97° |
| 2026-05-04 20:52 | 40.69807 | 30.38287 | 27244 ft | 408 kts | 97° |
| 2026-05-04 20:52 | 40.69076 | 30.41915 | 27694 ft | 411 kts | 97° |
| 2026-05-04 20:53 | 40.68338 | 30.45567 | 28142 ft | 414 kts | 97° |
| 2026-05-04 20:53 | 40.67595 | 30.49244 | 28577 ft | 417 kts | 97° |
| 2026-05-04 20:53 | 40.66845 | 30.52944 | 29019 ft | 420 kts | 97° |
| 2026-05-04 20:53 | 40.66097 | 30.56631 | 29430 ft | 422 kts | 97° |
| 2026-05-04 20:54 | 40.65332 | 30.60390 | 29844 ft | 425 kts | 97° |
| 2026-05-04 20:54 | 40.64564 | 30.64164 | 30223 ft | 428 kts | 97° |
| 2026-05-04 20:54 | 40.63788 | 30.67964 | 30564 ft | 431 kts | 97° |
| 2026-05-04 20:54 | 40.62996 | 30.71793 | 30873 ft | 434 kts | 98° |
| 2026-05-04 20:55 | 40.62183 | 30.75640 | 31201 ft | 437 kts | 98° |
| 2026-05-04 20:55 | 40.61370 | 30.79498 | 31547 ft | 439 kts | 98° |
| 2026-05-04 20:55 | 40.60561 | 30.83325 | 31881 ft | 441 kts | 98° |
| 2026-05-04 20:55 | 40.59738 | 30.87227 | 32186 ft | 444 kts | 99° |
| 2026-05-04 20:56 | 40.58906 | 30.91152 | 32490 ft | 446 kts | 99° |
| 2026-05-04 20:56 | 40.58069 | 30.95093 | 32774 ft | 449 kts | 99° |
| 2026-05-04 20:56 | 40.57228 | 30.99051 | 33101 ft | 451 kts | 99° |
| 2026-05-04 20:56 | 40.56379 | 31.03036 | 33485 ft | 452 kts | 99° |
| 2026-05-04 20:57 | 40.55529 | 31.07019 | 33930 ft | 452 kts | 99° |
| 2026-05-04 20:57 | 40.54679 | 31.10999 | 34276 ft | 452 kts | 100° |
| 2026-05-04 20:57 | 40.53826 | 31.14982 | 34560 ft | 453 kts | 100° |
| 2026-05-04 20:57 | 40.52968 | 31.18981 | 34841 ft | 454 kts | 100° |
| 2026-05-04 20:58 | 40.52105 | 31.22985 | 35131 ft | 456 kts | 101° |
| 2026-05-04 20:58 | 40.51249 | 31.26947 | 35401 ft | 457 kts | 101° |
| 2026-05-04 20:58 | 40.50379 | 31.30968 | 35690 ft | 458 kts | 101° |
| 2026-05-04 20:58 | 40.49505 | 31.35000 | 35981 ft | 459 kts | 101° |
| 2026-05-04 20:59 | 40.48630 | 31.39031 | 36258 ft | 460 kts | 102° |
| 2026-05-04 20:59 | 40.47751 | 31.43075 | 36534 ft | 460 kts | 102° |
| 2026-05-04 20:59 | 40.46868 | 31.47128 | 36808 ft | 461 kts | 102° |
| 2026-05-04 20:59 | 40.45984 | 31.51188 | 37031 ft | 463 kts | 102° |
| 2026-05-04 21:00 | 40.45097 | 31.55250 | 37299 ft | 463 kts | 102° |
| 2026-05-04 21:00 | 40.44206 | 31.59324 | 37544 ft | 464 kts | 103° |
| 2026-05-04 21:00 | 40.43314 | 31.63399 | 37786 ft | 465 kts | 103° |
| 2026-05-04 21:00 | 40.42416 | 31.67489 | 38034 ft | 465 kts | 103° |
| 2026-05-04 21:01 | 40.41528 | 31.71523 | 38273 ft | 466 kts | 103° |
| 2026-05-04 21:01 | 40.40630 | 31.75600 | 38509 ft | 466 kts | 103° |
| 2026-05-04 21:01 | 40.39726 | 31.79691 | 38724 ft | 466 kts | 104° |
| 2026-05-04 21:01 | 40.38823 | 31.83780 | 38896 ft | 467 kts | 104° |
| 2026-05-04 21:02 | 40.37006 | 31.91973 | 38972 ft | 466 kts | 104° |
| 2026-05-04 21:02 | 40.35367 | 32.00140 | 38957 ft | 465 kts | 102° |
| 2026-05-04 21:03 | 40.33729 | 32.08344 | 38966 ft | 465 kts | 103° |
| 2026-05-04 21:03 | 40.32081 | 32.16541 | 38955 ft | 465 kts | 103° |
| 2026-05-04 21:04 | 40.30426 | 32.24737 | 38953 ft | 465 kts | 103° |
| 2026-05-04 21:04 | 40.28764 | 32.32937 | 38943 ft | 465 kts | 103° |
| 2026-05-04 21:05 | 40.27098 | 32.41126 | 38944 ft | 465 kts | 103° |
| 2026-05-04 21:05 | 40.25434 | 32.49272 | 38942 ft | 465 kts | 103° |
| 2026-05-04 21:06 | 40.23755 | 32.57458 | 38941 ft | 465 kts | 103° |
| 2026-05-04 21:06 | 40.22072 | 32.65627 | 38934 ft | 465 kts | 104° |
| 2026-05-04 21:07 | 40.20394 | 32.73746 | 38936 ft | 465 kts | 104° |
| 2026-05-04 21:07 | 40.18699 | 32.81912 | 38940 ft | 465 kts | 104° |
| 2026-05-04 21:08 | 40.16997 | 32.90082 | 38940 ft | 465 kts | 104° |
| 2026-05-04 21:08 | 40.15690 | 32.98332 | 38926 ft | 461 kts | 88° |
| 2026-05-04 21:09 | 40.16035 | 33.02462 | 38935 ft | 458 kts | 73° |
| 2026-05-04 21:09 | 40.17147 | 33.06298 | 38940 ft | 456 kts | 62° |
| 2026-05-04 21:09 | 40.19816 | 33.13847 | 38943 ft | 459 kts | 66° |
| 2026-05-04 21:10 | 40.22330 | 33.21526 | 38930 ft | 459 kts | 65° |
| 2026-05-04 21:10 | 40.24872 | 33.29206 | 38919 ft | 459 kts | 65° |
| 2026-05-04 21:11 | 40.27410 | 33.36882 | 38908 ft | 459 kts | 65° |
| 2026-05-04 21:11 | 40.29943 | 33.44562 | 38891 ft | 460 kts | 65° |
| 2026-05-04 21:12 | 40.32477 | 33.52264 | 38888 ft | 460 kts | 66° |
| 2026-05-04 21:12 | 40.34991 | 33.59928 | 38881 ft | 460 kts | 66° |
| 2026-05-04 21:13 | 40.37518 | 33.67654 | 38874 ft | 461 kts | 66° |
| 2026-05-04 21:13 | 40.40042 | 33.75393 | 38871 ft | 461 kts | 66° |
| 2026-05-04 21:14 | 40.42562 | 33.83140 | 38872 ft | 461 kts | 66° |
| 2026-05-04 21:14 | 40.45081 | 33.90905 | 38862 ft | 462 kts | 66° |
| 2026-05-04 21:15 | 40.47578 | 33.98626 | 38863 ft | 462 kts | 66° |
| 2026-05-04 21:15 | 40.50091 | 34.06416 | 38860 ft | 463 kts | 66° |
| 2026-05-04 21:16 | 40.52601 | 34.14220 | 38856 ft | 464 kts | 66° |
| 2026-05-04 21:16 | 40.55109 | 34.22041 | 38858 ft | 464 kts | 67° |
| 2026-05-04 21:17 | 40.57614 | 34.29874 | 38856 ft | 465 kts | 67° |
| 2026-05-04 21:17 | 40.60121 | 34.37734 | 38860 ft | 465 kts | 67° |
| 2026-05-04 21:18 | 40.62607 | 34.45553 | 38850 ft | 465 kts | 67° |
| 2026-05-04 21:18 | 40.65101 | 34.53417 | 38851 ft | 465 kts | 68° |
| 2026-05-04 21:19 | 40.67591 | 34.61295 | 38850 ft | 465 kts | 68° |
| 2026-05-04 21:19 | 40.70073 | 34.69169 | 38848 ft | 465 kts | 68° |
| 2026-05-04 21:20 | 40.72554 | 34.77059 | 38847 ft | 465 kts | 68° |
| 2026-05-04 21:20 | 40.75028 | 34.84956 | 38846 ft | 465 kts | 68° |
| 2026-05-04 21:21 | 40.77482 | 34.92809 | 38852 ft | 465 kts | 68° |
| 2026-05-04 21:21 | 40.79943 | 35.00708 | 38853 ft | 465 kts | 68° |
| 2026-05-04 21:22 | 40.82405 | 35.08630 | 38856 ft | 465 kts | 69° |
| 2026-05-04 21:22 | 40.84844 | 35.16505 | 38867 ft | 465 kts | 69° |
| 2026-05-04 21:23 | 40.87289 | 35.24422 | 38872 ft | 465 kts | 69° |
| 2026-05-04 21:23 | 40.89321 | 35.31020 | 38877 ft | 465 kts | 69° |
| 2026-05-04 21:24 | 40.92150 | 35.40231 | 38882 ft | 465 kts | 69° |
| 2026-05-04 21:24 | 40.94176 | 35.46846 | 38883 ft | 465 kts | 69° |
| 2026-05-04 21:25 | 40.96606 | 35.54803 | 38884 ft | 466 kts | 69° |
| 2026-05-04 21:25 | 40.99031 | 35.62771 | 38880 ft | 466 kts | 69° |
| 2026-05-04 21:26 | 41.01432 | 35.70681 | 38876 ft | 466 kts | 69° |
| 2026-05-04 21:26 | 41.03843 | 35.78647 | 38883 ft | 466 kts | 69° |
| 2026-05-04 21:27 | 41.06254 | 35.86637 | 38893 ft | 466 kts | 69° |
| 2026-05-04 21:27 | 41.08658 | 35.94630 | 38903 ft | 466 kts | 69° |
| 2026-05-04 21:28 | 41.11040 | 36.02573 | 38909 ft | 466 kts | 69° |
| 2026-05-04 21:28 | 41.13431 | 36.10568 | 38911 ft | 466 kts | 69° |
| 2026-05-04 21:29 | 41.15820 | 36.18583 | 38921 ft | 466 kts | 69° |
| 2026-05-04 21:29 | 41.18204 | 36.26604 | 38931 ft | 467 kts | 70° |
| 2026-05-04 21:30 | 41.20582 | 36.34633 | 38932 ft | 467 kts | 70° |
| 2026-05-04 21:30 | 41.22939 | 36.42612 | 38938 ft | 467 kts | 70° |
| 2026-05-04 21:31 | 41.26080 | 36.54802 | 38922 ft | 462 kts | 87° |
| 2026-05-04 21:32 | 41.25833 | 36.63303 | 38933 ft | 462 kts | 96° |
| 2026-05-04 21:32 | 41.25296 | 36.71775 | 38936 ft | 462 kts | 97° |
| 2026-05-04 21:33 | 41.24679 | 36.80273 | 38935 ft | 462 kts | 97° |
| 2026-05-04 21:33 | 41.24041 | 36.88771 | 38933 ft | 462 kts | 97° |
| 2026-05-04 21:34 | 41.23395 | 36.97284 | 38928 ft | 463 kts | 97° |
| 2026-05-04 21:34 | 41.22742 | 37.05794 | 38925 ft | 463 kts | 97° |
| 2026-05-04 21:35 | 41.22082 | 37.14314 | 38926 ft | 464 kts | 97° |
| 2026-05-04 21:35 | 41.21431 | 37.22784 | 38921 ft | 463 kts | 97° |
| 2026-05-04 21:36 | 41.20808 | 37.31312 | 38920 ft | 464 kts | 97° |
| 2026-05-04 21:36 | 41.20174 | 37.39848 | 38919 ft | 464 kts | 97° |
| 2026-05-04 21:37 | 41.19534 | 37.48375 | 38918 ft | 464 kts | 97° |
| 2026-05-04 21:37 | 41.18937 | 37.56912 | 38919 ft | 465 kts | 97° |
| 2026-05-04 21:38 | 41.18254 | 37.65452 | 38918 ft | 465 kts | 98° |
| 2026-05-04 21:38 | 41.17582 | 37.73982 | 38921 ft | 465 kts | 98° |
| 2026-05-04 21:39 | 41.16910 | 37.82472 | 38914 ft | 465 kts | 98° |
| 2026-05-04 21:39 | 41.16228 | 37.91011 | 38915 ft | 465 kts | 98° |
| 2026-05-04 21:40 | 41.15540 | 37.99552 | 38919 ft | 465 kts | 98° |
| 2026-05-04 21:40 | 41.14845 | 38.08097 | 38906 ft | 465 kts | 98° |
| 2026-05-04 21:41 | 41.14144 | 38.16635 | 38913 ft | 465 kts | 98° |
| 2026-05-04 21:41 | 41.13441 | 38.25121 | 38906 ft | 465 kts | 98° |
| 2026-05-04 21:42 | 41.12726 | 38.33678 | 38907 ft | 466 kts | 98° |
| 2026-05-04 21:42 | 41.12005 | 38.42222 | 38903 ft | 466 kts | 99° |
| 2026-05-04 21:43 | 41.11282 | 38.50717 | 38911 ft | 466 kts | 99° |
| 2026-05-04 21:43 | 41.10547 | 38.59277 | 38902 ft | 466 kts | 99° |
| 2026-05-04 21:44 | 41.09807 | 38.67815 | 38903 ft | 466 kts | 99° |
| 2026-05-04 21:44 | 41.09063 | 38.76326 | 37987 ft | 466 kts | 99° |
| 2026-05-04 21:44 | 41.08687 | 38.80608 | 36910 ft | 466 kts | 99° |
| 2026-05-04 21:45 | 41.08310 | 38.84875 | 36188 ft | 466 kts | 99° |
| 2026-05-04 21:45 | 41.07931 | 38.89148 | 35628 ft | 463 kts | 99° |
| 2026-05-04 21:45 | 41.07559 | 38.93314 | 35100 ft | 459 kts | 99° |
| 2026-05-04 21:45 | 41.07185 | 38.97502 | 34539 ft | 456 kts | 98° |
| 2026-05-04 21:46 | 41.06809 | 39.01683 | 33975 ft | 454 kts | 98° |
| 2026-05-04 21:46 | 41.06435 | 39.05825 | 33321 ft | 452 kts | 99° |
| 2026-05-04 21:46 | 41.06062 | 39.09942 | 32727 ft | 448 kts | 99° |
| 2026-05-04 21:46 | 41.05690 | 39.14030 | 32204 ft | 443 kts | 99° |
| 2026-05-04 21:47 | 41.05322 | 39.18066 | 31678 ft | 439 kts | 99° |
| 2026-05-04 21:47 | 41.04955 | 39.22068 | 31148 ft | 435 kts | 99° |
| 2026-05-04 21:47 | 41.04590 | 39.26034 | 30611 ft | 431 kts | 99° |
| 2026-05-04 21:47 | 41.04234 | 39.29893 | 30093 ft | 423 kts | 99° |
| 2026-05-04 21:48 | 41.03882 | 39.33690 | 29513 ft | 409 kts | 100° |
| 2026-05-04 21:48 | 41.03539 | 39.37380 | 28986 ft | 395 kts | 100° |
| 2026-05-04 21:48 | 41.03207 | 39.40937 | 28524 ft | 381 kts | 100° |
| 2026-05-04 21:48 | 41.02886 | 39.44366 | 28080 ft | 369 kts | 100° |
| 2026-05-04 21:49 | 41.02565 | 39.47774 | 27600 ft | 378 kts | 100° |
| 2026-05-04 21:49 | 41.02238 | 39.51241 | 27146 ft | 381 kts | 100° |
| 2026-05-04 21:49 | 41.01906 | 39.54749 | 26708 ft | 383 kts | 100° |
| 2026-05-04 21:49 | 41.01576 | 39.58241 | 26284 ft | 382 kts | 100° |
| 2026-05-04 21:50 | 41.01244 | 39.61720 | 25836 ft | 379 kts | 100° |
| 2026-05-04 21:50 | 41.00914 | 39.65172 | 25400 ft | 377 kts | 100° |
| 2026-05-04 21:50 | 41.00585 | 39.68608 | 24973 ft | 375 kts | 99° |
| 2026-05-04 21:50 | 41.00261 | 39.71983 | 24559 ft | 373 kts | 99° |
| 2026-05-04 21:51 | 40.99933 | 39.75377 | 24146 ft | 371 kts | 100° |
| 2026-05-04 21:51 | 40.99812 | 39.78785 | 23657 ft | 374 kts | 85° |
| 2026-05-04 21:51 | 41.00507 | 39.82109 | 23185 ft | 377 kts | 68° |
| 2026-05-04 21:51 | 41.01556 | 39.85268 | 22768 ft | 373 kts | 68° |
| 2026-05-04 21:52 | 41.02603 | 39.88403 | 22371 ft | 370 kts | 68° |
| 2026-05-04 21:52 | 41.03652 | 39.91503 | 21968 ft | 367 kts | 68° |
| 2026-05-04 21:52 | 41.04695 | 39.94565 | 21583 ft | 364 kts | 68° |
| 2026-05-04 21:52 | 41.05737 | 39.97609 | 21197 ft | 361 kts | 68° |
| 2026-05-04 21:53 | 41.06769 | 40.00624 | 20817 ft | 358 kts | 68° |
| 2026-05-04 21:53 | 41.07797 | 40.03628 | 20438 ft | 355 kts | 68° |
| 2026-05-04 21:53 | 41.08812 | 40.06598 | 20066 ft | 353 kts | 68° |
| 2026-05-04 21:53 | 41.09823 | 40.09556 | 19691 ft | 350 kts | 68° |
| 2026-05-04 21:54 | 41.10812 | 40.12454 | 19316 ft | 348 kts | 68° |
| 2026-05-04 21:54 | 41.11820 | 40.15410 | 18956 ft | 346 kts | 68° |
| 2026-05-04 21:54 | 41.12795 | 40.18275 | 18570 ft | 345 kts | 68° |
| 2026-05-04 21:54 | 41.13779 | 40.21175 | 18176 ft | 344 kts | 68° |
| 2026-05-04 21:55 | 41.14758 | 40.24063 | 17770 ft | 342 kts | 68° |
| 2026-05-04 21:55 | 41.15729 | 40.26928 | 17389 ft | 339 kts | 68° |
| 2026-05-04 21:55 | 41.16691 | 40.29769 | 17031 ft | 336 kts | 68° |
| 2026-05-04 21:55 | 41.17642 | 40.32584 | 16681 ft | 333 kts | 68° |
| 2026-05-04 21:56 | 41.18586 | 40.35377 | 16325 ft | 330 kts | 68° |
| 2026-05-04 21:56 | 41.19521 | 40.38150 | 15964 ft | 328 kts | 68° |
| 2026-05-04 21:56 | 41.20172 | 40.41031 | 15504 ft | 325 kts | 87° |
| 2026-05-04 21:56 | 41.20139 | 40.44017 | 15223 ft | 325 kts | 94° |
| 2026-05-04 21:57 | 41.20036 | 40.47026 | 14912 ft | 326 kts | 95° |
| 2026-05-04 21:57 | 41.19909 | 40.50038 | 14531 ft | 326 kts | 95° |
| 2026-05-04 21:57 | 41.19769 | 40.53042 | 14127 ft | 326 kts | 95° |
| 2026-05-04 21:57 | 41.19620 | 40.56046 | 13710 ft | 326 kts | 95° |
| 2026-05-04 21:58 | 41.19470 | 40.58986 | 13250 ft | 318 kts | 95° |
| 2026-05-04 21:58 | 41.19317 | 40.61897 | 12851 ft | 314 kts | 95° |
| 2026-05-04 21:58 | 41.19167 | 40.64742 | 12455 ft | 303 kts | 96° |
| 2026-05-04 21:58 | 41.19020 | 40.67483 | 12075 ft | 293 kts | 96° |
| 2026-05-04 21:59 | 41.18878 | 40.70138 | 11714 ft | 284 kts | 96° |
| 2026-05-04 21:59 | 41.18740 | 40.72709 | 11357 ft | 275 kts | 96° |
| 2026-05-04 21:59 | 41.18605 | 40.75206 | 11009 ft | 267 kts | 96° |
| 2026-05-04 21:59 | 41.18473 | 40.77631 | 10673 ft | 259 kts | 96° |
| 2026-05-04 22:00 | 41.18345 | 40.79987 | 10347 ft | 256 kts | 96° |
| 2026-05-04 22:00 | 41.18215 | 40.82367 | 10023 ft | 259 kts | 95° |
| 2026-05-04 22:00 | 41.18118 | 40.84762 | 9655 ft | 261 kts | 88° |
| 2026-05-04 22:00 | 41.18641 | 40.87071 | 9223 ft | 266 kts | 61° |
| 2026-05-04 22:01 | 41.19595 | 40.89169 | 8897 ft | 265 kts | 60° |
| 2026-05-04 22:01 | 41.20536 | 40.91263 | 8599 ft | 263 kts | 60° |
| 2026-05-04 22:01 | 41.21468 | 40.93327 | 8259 ft | 257 kts | 59° |
| 2026-05-04 22:01 | 41.22376 | 40.95332 | 7917 ft | 249 kts | 59° |
| 2026-05-04 22:02 | 41.23257 | 40.97275 | 7601 ft | 241 kts | 59° |
| 2026-05-04 22:02 | 41.24108 | 40.99154 | 7296 ft | 234 kts | 59° |
| 2026-05-04 22:02 | 41.24933 | 41.00975 | 7001 ft | 227 kts | 59° |
| 2026-05-04 22:02 | 41.25732 | 41.02742 | 6712 ft | 220 kts | 59° |
| 2026-05-04 22:03 | 41.26506 | 41.04456 | 6441 ft | 212 kts | 59° |
| 2026-05-04 22:03 | 41.27244 | 41.06090 | 6165 ft | 205 kts | 59° |
| 2026-05-04 22:03 | 41.27966 | 41.07691 | 5886 ft | 198 kts | 59° |
| 2026-05-04 22:03 | 41.28663 | 41.09235 | 5621 ft | 191 kts | 59° |
| 2026-05-04 22:04 | 41.29333 | 41.10730 | 5367 ft | 184 kts | 62° |
| 2026-05-04 22:04 | 41.29731 | 41.12274 | 5220 ft | 173 kts | 83° |
| 2026-05-04 22:04 | 41.29598 | 41.13850 | 5115 ft | 174 kts | 113° |
| 2026-05-04 22:04 | 41.28867 | 41.15110 | 5052 ft | 174 kts | 143° |
| 2026-05-04 22:05 | 41.27758 | 41.15724 | 4982 ft | 175 kts | 172° |
| 2026-05-04 22:05 | 41.26556 | 41.15553 | 4923 ft | 176 kts | 201° |
| 2026-05-04 22:05 | 41.25557 | 41.14630 | 4833 ft | 177 kts | 230° |
| 2026-05-04 22:05 | 41.24956 | 41.13212 | 4712 ft | 178 kts | 250° |
| 2026-05-04 22:06 | 41.24585 | 41.11644 | 4518 ft | 179 kts | 252° |
| 2026-05-04 22:06 | 41.24201 | 41.10072 | 4266 ft | 179 kts | 251° |
| 2026-05-04 22:06 | 41.23876 | 41.08484 | 3998 ft | 177 kts | 257° |
| 2026-05-04 22:06 | 41.23625 | 41.06907 | 3744 ft | 173 kts | 257° |
| 2026-05-04 22:07 | 41.23306 | 41.05448 | 3508 ft | 155 kts | 250° |
| 2026-05-04 22:07 | 41.22950 | 41.04138 | 3282 ft | 147 kts | 250° |
| 2026-05-04 22:07 | 41.22618 | 41.02885 | 3043 ft | 141 kts | 250° |
| 2026-05-04 22:07 | 41.22298 | 41.01655 | 2833 ft | 140 kts | 250° |
| 2026-05-04 22:08 | 41.21981 | 41.00428 | 2611 ft | 140 kts | 251° |
| 2026-05-04 22:08 | 41.21665 | 40.99205 | 2402 ft | 140 kts | 251° |
| 2026-05-04 22:08 | 41.21351 | 40.97985 | 2183 ft | 140 kts | 251° |
| 2026-05-04 22:08 | 41.21037 | 40.96763 | 1963 ft | 140 kts | 251° |
| 2026-05-04 22:09 | 41.20829 | 40.95954 | 1816 ft | 139 kts | 252° |
| 2026-05-04 22:09 | 41.20413 | 40.94337 | 1510 ft | 139 kts | 251° |
| 2026-05-04 22:09 | 41.20101 | 40.93123 | 1286 ft | 138 kts | 251° |
| 2026-05-04 22:09 | 41.19895 | 40.92324 | 1130 ft | 138 kts | 251° |
| 2026-05-04 22:10 | 41.19589 | 40.91127 | 900 ft | 136 kts | 252° |
| 2026-05-04 22:10 | 41.19294 | 40.89935 | 646 ft | 135 kts | 249° |
| 2026-05-04 22:10 | 41.18972 | 40.88772 | 423 ft | 134 kts | 251° |
| 2026-05-04 22:10 | 41.18678 | 40.87606 | 266 ft | 133 kts | 251° |
| 2026-05-04 22:11 | 41.18384 | 40.86438 | 56 ft | 134 kts | 253° |
| 2026-05-04 22:11 | 41.18111 | 40.85394 | 29 ft | 98 kts | 250° |
| 2026-05-04 22:11 | 41.17940 | 40.84731 | 27 ft | 54 kts | 250° |
| 2026-05-04 22:11 | 41.17896 | 40.84560 | 26 ft | 9 kts | 251° |
| 2026-05-04 22:12 | 41.17879 | 40.84499 | 26 ft | 6 kts | 248° |
| 2026-05-04 22:12 | 41.17876 | 40.84488 | 25 ft | 0 kts | 248° |
| 2026-05-04 22:12 | 41.17872 | 40.84474 | 28 ft | 3 kts | 248° |
| 2026-05-04 22:12 | 41.17854 | 40.84440 | 28 ft | 6 kts | 223° |
| 2026-05-04 22:13 | 41.17811 | 40.84427 | 27 ft | 7 kts | 169° |
| 2026-05-04 22:13 | 41.17757 | 40.84449 | 27 ft | 9 kts | 161° |
| 2026-05-04 22:13 | 41.17694 | 40.84478 | 28 ft | 8 kts | 161° |
| 2026-05-04 22:13 | 41.17669 | 40.84489 | 28 ft | 5 kts | 162° |
| 2026-05-04 22:14 | 41.17638 | 40.84501 | 28 ft | 1 kts | 161° |
| 2026-05-04 22:14 | 41.17621 | 40.84515 | 28 ft | 4 kts | 147° |
| 2026-05-04 22:14 | 41.17584 | 40.84540 | 28 ft | 7 kts | 160° |
| 2026-05-04 22:14 | 41.17552 | 40.84554 | 28 ft | 0 kts | 160° |